»·PEaware :: N8735K KPSP-KSAN

N8735K :: KPSP-KSAN

FLIGHT INFORMATION

Flight Status: Arrived
Operator: Privately registered:
United States
More flights under this callsign
Pilot: Jeff K. (12978)
Aircraft: Unknown
(F33A)
More flights by this aircraft type
Origin: KPSP Palm Springs Intl
United States
Destination: KSAN San Diego Intl-Lindbergh
United States
More flights between these airports :: More routes between these airports
Route: +TRM6 TRM V514 MZB
File this flight plan on PilotEdge
Remarks:
Altitude:
(Current/Filed)
9,000ft
Speed:
(Current/Filed)
140kts
Departed: 15-Jan-18 08:11 PM
Arrived: 15-Jan-18 08:57 PM
Distance/Time
Traveled:
74nm/0:46
Distance/Time
To Go:
Arrived

Flight Plot

Page will automatically refresh every two minutes.


Map Options




Map Legend


Flown Route
Filed Route
Departure Airport
Arrival Airport
Navaid (VOR, NDB)
Fix

Horizontal Profiles

Position Reports

Time Latitude Longitude Heading Altitude Ground
Speed
15-Jan-18 19:51 33.826136 -116.508748 270 420ft 0kts
15-Jan-18 19:52 33.826136 -116.508748 270 420ft 0kts
15-Jan-18 19:53 33.826136 -116.508748 270 420ft 0kts
15-Jan-18 19:54 33.826136 -116.508748 270 420ft 0kts
15-Jan-18 19:55 33.826136 -116.508748 270 420ft 0kts
15-Jan-18 19:56 33.826136 -116.508748 270 420ft 0kts
15-Jan-18 19:57 33.826136 -116.508748 270 420ft 0kts
15-Jan-18 19:58 33.826136 -116.508748 270 420ft 0kts
15-Jan-18 19:59 33.826136 -116.508748 270 420ft 0kts
15-Jan-18 20:00 33.826136 -116.508748 270 420ft 0kts
15-Jan-18 20:01 33.826136 -116.508748 270 420ft 0kts
15-Jan-18 20:02 33.826136 -116.508748 270 420ft 0kts
15-Jan-18 20:03 33.826136 -116.508748 270 420ft 0kts
15-Jan-18 20:04 33.826136 -116.508752 270 420ft 0kts
15-Jan-18 20:05 33.826157 -116.508571 142 420ft 9kts
15-Jan-18 20:06 33.825397 -116.506721 125 415ft 7kts
15-Jan-18 20:07 33.823251 -116.504656 122 410ft 0kts
15-Jan-18 20:08 33.821751 -116.502652 143 404ft 25kts
15-Jan-18 20:09 33.818322 -116.499087 45 395ft 0kts
15-Jan-18 20:10 33.818454 -116.498911 54 395ft 0kts
15-Jan-18 20:11 33.818454 -116.498911 54 395ft 0kts
15-Jan-18 20:12 33.818454 -116.498911 54 395ft 0kts
15-Jan-18 20:13 33.818454 -116.498911 54 395ft 0kts
15-Jan-18 20:14 33.818454 -116.498911 54 395ft 0kts
15-Jan-18 20:15 33.818455 -116.498910 54 395ft 0kts
15-Jan-18 20:16 33.818809 -116.498275 9 394ft 15kts
15-Jan-18 20:17 33.834922 -116.510883 337 1132ft 103kts
15-Jan-18 20:18 33.849363 -116.484707 101 2653ft 122kts
15-Jan-18 20:19 33.841525 -116.444736 104 3940ft 121kts
15-Jan-18 20:20 33.833267 -116.405214 111 5010ft 123kts
15-Jan-18 20:21 33.815139 -116.370381 129 6011ft 123kts
15-Jan-18 20:22 33.791735 -116.341247 142 6927ft 123kts
15-Jan-18 20:23 33.766018 -116.313409 138 7721ft 128kts
15-Jan-18 20:24 33.743106 -116.287960 141 8008ft 149kts
15-Jan-18 20:25 33.703870 -116.247280 142 8000ft 166kts
15-Jan-18 20:26 33.671305 -116.206785 137 7999ft 170kts
15-Jan-18 20:27 33.636604 -116.168820 166 7986ft 167kts
15-Jan-18 20:28 33.607724 -116.188284 223 8000ft 156kts
15-Jan-18 20:29 33.578974 -116.218000 224 8366ft 137kts
15-Jan-18 20:30 33.542425 -116.242003 214 9018ft 140kts
15-Jan-18 20:31 33.512051 -116.262983 209 9041ft 160kts
15-Jan-18 20:32 33.474827 -116.294161 220 9046ft 165kts
15-Jan-18 20:33 33.438209 -116.327142 220 9044ft 167kts
15-Jan-18 20:34 33.399003 -116.357123 219 9037ft 168kts
15-Jan-18 20:35 33.362259 -116.391352 221 9032ft 168kts
15-Jan-18 20:36 33.325770 -116.424423 220 9017ft 160kts
15-Jan-18 20:37 33.290928 -116.455277 219 9002ft 154kts
15-Jan-18 20:38 33.257071 -116.484967 219 8994ft 152kts
15-Jan-18 20:39 33.223171 -116.514578 219 8986ft 151kts
15-Jan-18 20:40 33.189124 -116.544250 219 8979ft 151kts
15-Jan-18 20:41 33.154342 -116.572076 192 8957ft 156kts
15-Jan-18 20:42 33.113735 -116.586519 211 8723ft 164kts
15-Jan-18 20:43 33.072368 -116.613280 212 8038ft 172kts
15-Jan-18 20:44 33.033141 -116.638748 212 7995ft 151kts
15-Jan-18 20:45 32.997255 -116.661756 211 8000ft 149kts
15-Jan-18 20:46 32.961908 -116.686627 214 8011ft 148kts
15-Jan-18 20:47 32.926640 -116.711764 214 7991ft 149kts
15-Jan-18 20:48 32.887956 -116.739079 213 7325ft 172kts
15-Jan-18 20:49 32.847012 -116.768068 213 6651ft 177kts
15-Jan-18 20:50 32.814906 -116.790627 212 6171ft 176kts
15-Jan-18 20:51 32.786407 -116.810490 214 5806ft 158kts
15-Jan-18 20:52 32.750779 -116.835558 214 5474ft 144kts
15-Jan-18 20:53 32.717297 -116.859064 215 5267ft 137kts
15-Jan-18 20:54 32.689615 -116.887445 244 5111ft 130kts
15-Jan-18 20:55 32.676040 -116.927543 255 4768ft 131kts
15-Jan-18 20:56 32.679477 -116.968441 284 4365ft 123kts
15-Jan-18 20:57 32.689327 -117.009977 285 3627ft 137kts
15-Jan-18 20:58 32.699998 -117.052092 285 3147ft 128kts
15-Jan-18 20:59 32.709048 -117.089439 285 2183ft 111kts
15-Jan-18 21:00 32.717414 -117.123673 284 1228ft 103kts
15-Jan-18 21:01 32.725277 -117.155643 284 554ft 100kts
15-Jan-18 21:02 32.732113 -117.183663 283 25ft 71kts
15-Jan-18 21:03 32.734725 -117.190669 38 17ft 3kts
15-Jan-18 21:04 32.734783 -117.189959 116 17ft 13kts
15-Jan-18 21:05 32.733085 -117.182935 107 16ft 23kts

Navigation Log

Ident Type
Flight plan parsing failed, navigation log unavailable